sensor_id;sensor_type;location;lat;lon;timestamp;temperature;humidity
65637;DHT22;52327;42.622;23.316;2023-11-18T00:01:13;4.18;88.96
65637;DHT22;52327;42.622;23.316;2023-11-18T00:03:38;4.06;89.58
65637;DHT22;52327;42.622;23.316;2023-11-18T00:06:04;3.99;89.98
65637;DHT22;52327;42.622;23.316;2023-11-18T00:08:30;3.95;89.97
65637;DHT22;52327;42.622;23.316;2023-11-18T00:10:56;3.87;89.40
65637;DHT22;52327;42.622;23.316;2023-11-18T00:13:21;3.93;90.35
65637;DHT22;52327;42.622;23.316;2023-11-18T00:15:47;3.92;90.28
65637;DHT22;52327;42.622;23.316;2023-11-18T00:18:13;3.89;88.54
65637;DHT22;52327;42.622;23.316;2023-11-18T00:20:40;3.83;88.98
65637;DHT22;52327;42.622;23.316;2023-11-18T00:23:05;3.76;90.03
65637;DHT22;52327;42.622;23.316;2023-11-18T00:25:31;3.82;87.95
65637;DHT22;52327;42.622;23.316;2023-11-18T00:27:57;3.81;87.77
65637;DHT22;52327;42.622;23.316;2023-11-18T00:30:22;3.83;88.59
65637;DHT22;52327;42.622;23.316;2023-11-18T00:32:47;3.89;89.11
65637;DHT22;52327;42.622;23.316;2023-11-18T00:35:13;3.86;88.92
65637;DHT22;52327;42.622;23.316;2023-11-18T00:37:40;3.89;88.63
65637;DHT22;52327;42.622;23.316;2023-11-18T00:40:07;3.87;89.89
65637;DHT22;52327;42.622;23.316;2023-11-18T00:42:33;3.93;87.87
65637;DHT22;52327;42.622;23.316;2023-11-18T00:44:58;3.95;89.09
65637;DHT22;52327;42.622;23.316;2023-11-18T00:47:24;3.99;89.60
65637;DHT22;52327;42.622;23.316;2023-11-18T00:49:49;3.96;90.23
65637;DHT22;52327;42.622;23.316;2023-11-18T00:52:17;3.83;88.57
65637;DHT22;52327;42.622;23.316;2023-11-18T00:54:43;3.73;88.80
65637;DHT22;52327;42.622;23.316;2023-11-18T00:57:09;3.69;90.09
65637;DHT22;52327;42.622;23.316;2023-11-18T00:59:40;3.61;89.85
65637;DHT22;52327;42.622;23.316;2023-11-18T01:02:06;3.61;90.55
65637;DHT22;52327;42.622;23.316;2023-11-18T01:04:31;3.68;90.64
65637;DHT22;52327;42.622;23.316;2023-11-18T01:06:58;3.61;89.62
65637;DHT22;52327;42.622;23.316;2023-11-18T01:09:24;3.58;90.42
65637;DHT22;52327;42.622;23.316;2023-11-18T01:11:50;3.64;89.73
65637;DHT22;52327;42.622;23.316;2023-11-18T01:14:16;3.66;90.18
65637;DHT22;52327;42.622;23.316;2023-11-18T01:16:43;3.62;89.86
65637;DHT22;52327;42.622;23.316;2023-11-18T01:19:09;3.50;90.03
65637;DHT22;52327;42.622;23.316;2023-11-18T01:21:35;3.51;89.07
65637;DHT22;52327;42.622;23.316;2023-11-18T01:24:06;3.45;89.78
65637;DHT22;52327;42.622;23.316;2023-11-18T01:26:33;3.39;88.77
65637;DHT22;52327;42.622;23.316;2023-11-18T01:28:59;3.39;91.12
65637;DHT22;52327;42.622;23.316;2023-11-18T01:31:24;3.50;90.87
65637;DHT22;52327;42.622;23.316;2023-11-18T01:33:55;3.54;89.67
65637;DHT22;52327;42.622;23.316;2023-11-18T01:36:21;3.52;89.32
65637;DHT22;52327;42.622;23.316;2023-11-18T01:38:49;3.51;90.64
65637;DHT22;52327;42.622;23.316;2023-11-18T01:41:14;3.28;90.27
65637;DHT22;52327;42.622;23.316;2023-11-18T01:43:40;3.30;89.94
65637;DHT22;52327;42.622;23.316;2023-11-18T01:46:09;3.32;89.66
65637;DHT22;52327;42.622;23.316;2023-11-18T01:48:36;3.36;90.18
65637;DHT22;52327;42.622;23.316;2023-11-18T01:51:04;3.34;89.03
65637;DHT22;52327;42.622;23.316;2023-11-18T01:53:31;3.24;89.11
65637;DHT22;52327;42.622;23.316;2023-11-18T01:56:01;3.18;88.89
65637;DHT22;52327;42.622;23.316;2023-11-18T01:58:28;3.08;88.87
65637;DHT22;52327;42.622;23.316;2023-11-18T02:00:56;3.11;89.77
65637;DHT22;52327;42.622;23.316;2023-11-18T02:03:22;3.14;89.35
65637;DHT22;52327;42.622;23.316;2023-11-18T02:05:48;3.07;90.19
65637;DHT22;52327;42.622;23.316;2023-11-18T02:08:14;3.07;90.55
65637;DHT22;52327;42.622;23.316;2023-11-18T02:10:47;3.04;90.58
65637;DHT22;52327;42.622;23.316;2023-11-18T02:13:21;2.99;90.45
65637;DHT22;52327;42.622;23.316;2023-11-18T02:15:52;2.91;90.28
65637;DHT22;52327;42.622;23.316;2023-11-18T02:18:19;2.96;89.94
65637;DHT22;52327;42.622;23.316;2023-11-18T02:20:46;2.83;89.12
65637;DHT22;52327;42.622;23.316;2023-11-18T02:23:13;2.87;89.84
65637;DHT22;52327;42.622;23.316;2023-11-18T02:25:45;2.83;90.27
65637;DHT22;52327;42.622;23.316;2023-11-18T02:28:10;2.79;89.97
65637;DHT22;52327;42.622;23.316;2023-11-18T02:30:36;2.72;89.99
65637;DHT22;52327;42.622;23.316;2023-11-18T02:35:45;2.64;88.42
65637;DHT22;52327;42.622;23.316;2023-11-18T02:38:16;2.64;88.54
65637;DHT22;52327;42.622;23.316;2023-11-18T02:40:44;2.72;88.02
65637;DHT22;52327;42.622;23.316;2023-11-18T02:43:11;2.70;87.53
65637;DHT22;52327;42.622;23.316;2023-11-18T02:45:37;2.87;86.52
65637;DHT22;52327;42.622;23.316;2023-11-18T02:48:06;2.83;85.75
65637;DHT22;52327;42.622;23.316;2023-11-18T02:50:35;2.91;84.95
65637;DHT22;52327;42.622;23.316;2023-11-18T02:53:01;3.01;86.48
65637;DHT22;52327;42.622;23.316;2023-11-18T02:55:27;3.03;86.33
65637;DHT22;52327;42.622;23.316;2023-11-18T02:57:59;2.96;84.59
65637;DHT22;52327;42.622;23.316;2023-11-18T03:00:25;2.86;85.72
65637;DHT22;52327;42.622;23.316;2023-11-18T03:02:55;2.83;83.37
65637;DHT22;52327;42.622;23.316;2023-11-18T03:05:21;2.83;85.14
65637;DHT22;52327;42.622;23.316;2023-11-18T03:07:47;2.79;85.14
65637;DHT22;52327;42.622;23.316;2023-11-18T03:10:18;2.67;84.37
65637;DHT22;52327;42.622;23.316;2023-11-18T03:12:48;2.60;85.07
65637;DHT22;52327;42.622;23.316;2023-11-18T03:15:14;2.57;85.91
65637;DHT22;52327;42.622;23.316;2023-11-18T03:17:46;2.46;85.72
65637;DHT22;52327;42.622;23.316;2023-11-18T03:20:16;2.57;86.43
65637;DHT22;52327;42.622;23.316;2023-11-18T03:22:43;2.60;85.67
65637;DHT22;52327;42.622;23.316;2023-11-18T03:25:10;2.56;85.66
65637;DHT22;52327;42.622;23.316;2023-11-18T03:27:35;2.50;83.92
65637;DHT22;52327;42.622;23.316;2023-11-18T03:30:01;2.49;85.13
65637;DHT22;52327;42.622;23.316;2023-11-18T03:32:26;2.48;84.03
65637;DHT22;52327;42.622;23.316;2023-11-18T03:34:52;2.50;85.22
65637;DHT22;52327;42.622;23.316;2023-11-18T03:37:17;2.52;83.90
65637;DHT22;52327;42.622;23.316;2023-11-18T03:39:45;2.53;83.15
65637;DHT22;52327;42.622;23.316;2023-11-18T03:42:10;2.49;83.02
65637;DHT22;52327;42.622;23.316;2023-11-18T03:44:36;2.36;83.23
65637;DHT22;52327;42.622;23.316;2023-11-18T03:47:02;2.39;84.90
65637;DHT22;52327;42.622;23.316;2023-11-18T03:49:28;2.52;83.04
65637;DHT22;52327;42.622;23.316;2023-11-18T03:51:53;2.46;83.80
65637;DHT22;52327;42.622;23.316;2023-11-18T03:54:20;2.46;83.87
65637;DHT22;52327;42.622;23.316;2023-11-18T03:56:45;2.40;84.15
65637;DHT22;52327;42.622;23.316;2023-11-18T03:59:10;2.36;83.75
65637;DHT22;52327;42.622;23.316;2023-11-18T04:01:36;2.15;83.93
65637;DHT22;52327;42.622;23.316;2023-11-18T04:04:01;1.98;84.37
65637;DHT22;52327;42.622;23.316;2023-11-18T04:06:29;2.02;85.52
65637;DHT22;52327;42.622;23.316;2023-11-18T04:08:54;1.97;83.97
65637;DHT22;52327;42.622;23.316;2023-11-18T04:11:20;1.81;85.15
65637;DHT22;52327;42.622;23.316;2023-11-18T04:13:46;1.80;84.74
65637;DHT22;52327;42.622;23.316;2023-11-18T04:16:15;1.84;84.73
65637;DHT22;52327;42.622;23.316;2023-11-18T04:18:41;1.74;85.74
65637;DHT22;52327;42.622;23.316;2023-11-18T04:21:08;1.73;83.30
65637;DHT22;52327;42.622;23.316;2023-11-18T04:23:41;1.64;84.26
65637;DHT22;52327;42.622;23.316;2023-11-18T04:26:07;1.61;82.66
65637;DHT22;52327;42.622;23.316;2023-11-18T04:28:34;1.73;84.30
65637;DHT22;52327;42.622;23.316;2023-11-18T04:31:00;1.74;84.58
65637;DHT22;52327;42.622;23.316;2023-11-18T04:33:26;1.74;84.37
65637;DHT22;52327;42.622;23.316;2023-11-18T04:35:52;1.67;85.46
65637;DHT22;52327;42.622;23.316;2023-11-18T04:38:18;1.66;85.01
65637;DHT22;52327;42.622;23.316;2023-11-18T04:40:44;1.63;83.41
65637;DHT22;52327;42.622;23.316;2023-11-18T04:43:11;1.56;84.39
65637;DHT22;52327;42.622;23.316;2023-11-18T04:45:37;1.56;84.49
65637;DHT22;52327;42.622;23.316;2023-11-18T04:48:03;1.61;84.41
65637;DHT22;52327;42.622;23.316;2023-11-18T04:50:30;1.63;84.56
65637;DHT22;52327;42.622;23.316;2023-11-18T04:52:56;1.60;83.05
65637;DHT22;52327;42.622;23.316;2023-11-18T04:55:21;1.58;85.42
65637;DHT22;52327;42.622;23.316;2023-11-18T04:57:47;1.61;84.90
65637;DHT22;52327;42.622;23.316;2023-11-18T05:00:13;1.57;83.08
65637;DHT22;52327;42.622;23.316;2023-11-18T05:02:42;1.54;84.03
65637;DHT22;52327;42.622;23.316;2023-11-18T05:05:08;1.53;82.58
65637;DHT22;52327;42.622;23.316;2023-11-18T05:07:34;1.51;83.11
65637;DHT22;52327;42.622;23.316;2023-11-18T05:10:01;1.63;84.82
65637;DHT22;52327;42.622;23.316;2023-11-18T05:12:27;1.63;83.33
65637;DHT22;52327;42.622;23.316;2023-11-18T05:14:57;1.68;83.91
65637;DHT22;52327;42.622;23.316;2023-11-18T05:17:23;1.68;83.25
65637;DHT22;52327;42.622;23.316;2023-11-18T05:19:49;1.77;83.76
65637;DHT22;52327;42.622;23.316;2023-11-18T05:22:14;1.81;82.70
65637;DHT22;52327;42.622;23.316;2023-11-18T05:24:40;1.77;81.07
65637;DHT22;52327;42.622;23.316;2023-11-18T05:27:05;1.78;82.67
65637;DHT22;52327;42.622;23.316;2023-11-18T05:29:32;1.93;83.04
65637;DHT22;52327;42.622;23.316;2023-11-18T05:32:00;1.84;80.88
65637;DHT22;52327;42.622;23.316;2023-11-18T05:34:26;1.84;79.66
65637;DHT22;52327;42.622;23.316;2023-11-18T05:36:52;1.84;80.81
65637;DHT22;52327;42.622;23.316;2023-11-18T05:39:23;1.78;80.47
65637;DHT22;52327;42.622;23.316;2023-11-18T05:41:53;1.73;80.10
65637;DHT22;52327;42.622;23.316;2023-11-18T05:44:23;1.80;79.47
65637;DHT22;52327;42.622;23.316;2023-11-18T05:46:57;1.78;79.52
65637;DHT22;52327;42.622;23.316;2023-11-18T05:49:22;1.81;79.88
65637;DHT22;52327;42.622;23.316;2023-11-18T05:51:49;1.88;80.40
65637;DHT22;52327;42.622;23.316;2023-11-18T05:54:15;1.85;81.69
65637;DHT22;52327;42.622;23.316;2023-11-18T05:56:41;1.98;80.36
65637;DHT22;52327;42.622;23.316;2023-11-18T05:59:09;2.05;80.55
65637;DHT22;52327;42.622;23.316;2023-11-18T06:01:36;2.04;80.43
65637;DHT22;52327;42.622;23.316;2023-11-18T06:04:03;2.02;79.57
65637;DHT22;52327;42.622;23.316;2023-11-18T06:06:28;2.01;78.95
65637;DHT22;52327;42.622;23.316;2023-11-18T06:08:54;2.08;80.98
65637;DHT22;52327;42.622;23.316;2023-11-18T06:11:22;2.02;80.66
65637;DHT22;52327;42.622;23.316;2023-11-18T06:13:49;1.95;81.20
65637;DHT22;52327;42.622;23.316;2023-11-18T06:16:19;2.01;80.01
65637;DHT22;52327;42.622;23.316;2023-11-18T06:18:52;1.94;79.71
65637;DHT22;52327;42.622;23.316;2023-11-18T06:21:23;1.90;80.03
65637;DHT22;52327;42.622;23.316;2023-11-18T06:23:59;2.07;83.10
65637;DHT22;52327;42.622;23.316;2023-11-18T06:26:25;1.91;80.82
65637;DHT22;52327;42.622;23.316;2023-11-18T06:28:53;1.91;82.12
65637;DHT22;52327;42.622;23.316;2023-11-18T06:31:21;1.87;80.66
65637;DHT22;52327;42.622;23.316;2023-11-18T06:33:49;1.78;79.19
65637;DHT22;52327;42.622;23.316;2023-11-18T06:38:42;2.01;79.68
65637;DHT22;52327;42.622;23.316;2023-11-18T06:41:09;1.98;80.64
65637;DHT22;52327;42.622;23.316;2023-11-18T06:43:39;2.05;79.33
65637;DHT22;52327;42.622;23.316;2023-11-18T06:46:30;2.04;78.75
65637;DHT22;52327;42.622;23.316;2023-11-18T06:49:01;2.15;78.91
65637;DHT22;52327;42.622;23.316;2023-11-18T06:51:33;2.22;77.38
65637;DHT22;52327;42.622;23.316;2023-11-18T06:54:01;2.12;77.42
65637;DHT22;52327;42.622;23.316;2023-11-18T06:56:34;2.09;77.59
65637;DHT22;52327;42.622;23.316;2023-11-18T06:59:01;2.02;76.55
65637;DHT22;52327;42.622;23.316;2023-11-18T07:01:27;1.97;77.40
65637;DHT22;52327;42.622;23.316;2023-11-18T07:03:55;2.09;79.15
65637;DHT22;52327;42.622;23.316;2023-11-18T07:06:21;2.17;77.76
65637;DHT22;52327;42.622;23.316;2023-11-18T07:08:52;2.17;75.81
65637;DHT22;52327;42.622;23.316;2023-11-18T07:11:18;2.26;77.16
65637;DHT22;52327;42.622;23.316;2023-11-18T07:13:47;2.42;76.41
65637;DHT22;52327;42.622;23.316;2023-11-18T07:16:13;2.42;76.95
65637;DHT22;52327;42.622;23.316;2023-11-18T07:18:40;2.38;76.77
65637;DHT22;52327;42.622;23.316;2023-11-18T07:21:05;2.40;78.51
65637;DHT22;52327;42.622;23.316;2023-11-18T07:23:32;2.33;78.49
65637;DHT22;52327;42.622;23.316;2023-11-18T07:25:57;2.25;77.55
65637;DHT22;52327;42.622;23.316;2023-11-18T07:28:23;2.29;77.21
65637;DHT22;52327;42.622;23.316;2023-11-18T07:30:49;2.18;78.39
65637;DHT22;52327;42.622;23.316;2023-11-18T07:33:18;2.09;80.64
65637;DHT22;52327;42.622;23.316;2023-11-18T07:35:47;2.02;79.46
65637;DHT22;52327;42.622;23.316;2023-11-18T07:38:13;1.97;79.40
65637;DHT22;52327;42.622;23.316;2023-11-18T07:40:39;1.97;79.28
65637;DHT22;52327;42.622;23.316;2023-11-18T07:43:17;1.97;80.08
65637;DHT22;52327;42.622;23.316;2023-11-18T07:45:43;1.94;80.23
65637;DHT22;52327;42.622;23.316;2023-11-18T07:48:09;1.88;80.45
65637;DHT22;52327;42.622;23.316;2023-11-18T07:50:38;1.87;79.76
65637;DHT22;52327;42.622;23.316;2023-11-18T07:53:05;1.82;80.71
65637;DHT22;52327;42.622;23.316;2023-11-18T07:55:32;1.81;80.63
65637;DHT22;52327;42.622;23.316;2023-11-18T07:58:00;1.84;81.79
65637;DHT22;52327;42.622;23.316;2023-11-18T08:00:27;1.87;81.40
65637;DHT22;52327;42.622;23.316;2023-11-18T08:02:56;1.74;80.44
65637;DHT22;52327;42.622;23.316;2023-11-18T08:05:22;1.70;80.65
65637;DHT22;52327;42.622;23.316;2023-11-18T08:07:49;1.68;81.10
65637;DHT22;52327;42.622;23.316;2023-11-18T08:10:14;1.71;81.26
65637;DHT22;52327;42.622;23.316;2023-11-18T08:12:44;1.74;80.71
65637;DHT22;52327;42.622;23.316;2023-11-18T08:15:10;1.68;80.03
65637;DHT22;52327;42.622;23.316;2023-11-18T08:17:35;1.78;80.49
65637;DHT22;52327;42.622;23.316;2023-11-18T08:20:01;1.93;79.51
65637;DHT22;52327;42.622;23.316;2023-11-18T08:22:32;1.81;79.01
65637;DHT22;52327;42.622;23.316;2023-11-18T08:24:57;1.95;79.37
65637;DHT22;52327;42.622;23.316;2023-11-18T08:27:24;1.93;79.74
65637;DHT22;52327;42.622;23.316;2023-11-18T08:29:50;1.87;78.70
65637;DHT22;52327;42.622;23.316;2023-11-18T08:32:15;1.94;78.25
65637;DHT22;52327;42.622;23.316;2023-11-18T08:34:41;2.08;78.72
65637;DHT22;52327;42.622;23.316;2023-11-18T08:37:06;2.07;77.54
65637;DHT22;52327;42.622;23.316;2023-11-18T08:39:32;2.05;77.81
65637;DHT22;52327;42.622;23.316;2023-11-18T08:41:58;2.02;78.48
65637;DHT22;52327;42.622;23.316;2023-11-18T08:44:23;2.02;77.62
65637;DHT22;52327;42.622;23.316;2023-11-18T08:46:51;1.99;77.66
65637;DHT22;52327;42.622;23.316;2023-11-18T08:49:18;2.17;77.93
65637;DHT22;52327;42.622;23.316;2023-11-18T08:51:48;2.01;77.85
65637;DHT22;52327;42.622;23.316;2023-11-18T08:54:15;1.99;79.75
65637;DHT22;52327;42.622;23.316;2023-11-18T08:56:51;1.90;79.80
65637;DHT22;52327;42.622;23.316;2023-11-18T08:59:21;1.75;78.33
65637;DHT22;52327;42.622;23.316;2023-11-18T09:01:53;1.74;78.18
65637;DHT22;52327;42.622;23.316;2023-11-18T09:04:25;1.71;80.51
65637;DHT22;52327;42.622;23.316;2023-11-18T09:06:53;1.73;80.41
65637;DHT22;52327;42.622;23.316;2023-11-18T09:09:22;1.84;79.05
65637;DHT22;52327;42.622;23.316;2023-11-18T09:11:56;1.85;77.93
65637;DHT22;52327;42.622;23.316;2023-11-18T09:14:26;1.90;77.90
65637;DHT22;52327;42.622;23.316;2023-11-18T09:16:52;1.85;78.05
65637;DHT22;52327;42.622;23.316;2023-11-18T09:19:20;1.75;77.77
65637;DHT22;52327;42.622;23.316;2023-11-18T09:21:47;1.95;79.61
65637;DHT22;52327;42.622;23.316;2023-11-18T09:24:12;2.05;78.78
65637;DHT22;52327;42.622;23.316;2023-11-18T09:26:39;2.01;76.37
65637;DHT22;52327;42.622;23.316;2023-11-18T09:29:05;1.99;77.17
65637;DHT22;52327;42.622;23.316;2023-11-18T09:31:34;2.12;76.80
65637;DHT22;52327;42.622;23.316;2023-11-18T09:34:01;2.18;77.62
65637;DHT22;52327;42.622;23.316;2023-11-18T09:36:31;2.04;78.69
65637;DHT22;52327;42.622;23.316;2023-11-18T09:38:59;1.94;76.49
65637;DHT22;52327;42.622;23.316;2023-11-18T09:41:24;1.97;77.57
65637;DHT22;52327;42.622;23.316;2023-11-18T09:43:52;1.95;76.82
65637;DHT22;52327;42.622;23.316;2023-11-18T09:46:28;2.04;77.66
65637;DHT22;52327;42.622;23.316;2023-11-18T09:51:43;1.98;76.87
65637;DHT22;52327;42.622;23.316;2023-11-18T10:02:32;1.91;79.94
65637;DHT22;52327;42.622;23.316;2023-11-18T10:04:58;1.90;76.92
65637;DHT22;52327;42.622;23.316;2023-11-18T10:07:25;1.95;76.84
65637;DHT22;52327;42.622;23.316;2023-11-18T10:09:55;1.99;77.24
65637;DHT22;52327;42.622;23.316;2023-11-18T10:12:24;1.98;76.14
65637;DHT22;52327;42.622;23.316;2023-11-18T10:14:52;1.94;75.81
65637;DHT22;52327;42.622;23.316;2023-11-18T10:17:17;1.94;76.46
65637;DHT22;52327;42.622;23.316;2023-11-18T10:19:54;1.97;75.75
65637;DHT22;52327;42.622;23.316;2023-11-18T10:22:35;2.17;75.10
65637;DHT22;52327;42.622;23.316;2023-11-18T10:25:01;2.05;75.97
65637;DHT22;52327;42.622;23.316;2023-11-18T10:27:27;2.04;76.32
65637;DHT22;52327;42.622;23.316;2023-11-18T10:30:03;2.04;76.28
65637;DHT22;52327;42.622;23.316;2023-11-18T10:32:30;2.04;75.15
65637;DHT22;52327;42.622;23.316;2023-11-18T10:35:00;2.11;74.95
65637;DHT22;52327;42.622;23.316;2023-11-18T10:40:09;2.28;75.97
65637;DHT22;52327;42.622;23.316;2023-11-18T10:42:38;2.15;75.19
65637;DHT22;52327;42.622;23.316;2023-11-18T10:45:04;2.07;75.90
65637;DHT22;52327;42.622;23.316;2023-11-18T10:47:33;2.05;74.32
65637;DHT22;52327;42.622;23.316;2023-11-18T10:50:04;2.02;74.38
65637;DHT22;52327;42.622;23.316;2023-11-18T10:52:30;2.04;74.80
65637;DHT22;52327;42.622;23.316;2023-11-18T10:54:57;2.08;75.31
65637;DHT22;52327;42.622;23.316;2023-11-18T10:57:23;2.11;74.72
65637;DHT22;52327;42.622;23.316;2023-11-18T10:59:59;2.11;76.76
65637;DHT22;52327;42.622;23.316;2023-11-18T11:02:32;2.26;75.57
65637;DHT22;52327;42.622;23.316;2023-11-18T11:05:05;2.21;74.18
65637;DHT22;52327;42.622;23.316;2023-11-18T11:07:44;2.18;75.01
65637;DHT22;52327;42.622;23.316;2023-11-18T11:10:13;2.26;74.90
65637;DHT22;52327;42.622;23.316;2023-11-18T11:12:50;2.26;74.58
65637;DHT22;52327;42.622;23.316;2023-11-18T11:15:35;2.33;74.15
65637;DHT22;52327;42.622;23.316;2023-11-18T11:18:08;2.33;73.33
65637;DHT22;52327;42.622;23.316;2023-11-18T11:20:51;2.48;74.24
65637;DHT22;52327;42.622;23.316;2023-11-18T11:23:30;2.40;75.22
65637;DHT22;52327;42.622;23.316;2023-11-18T11:31:48;2.46;74.54
65637;DHT22;52327;42.622;23.316;2023-11-18T11:34:23;2.42;73.66
65637;DHT22;52327;42.622;23.316;2023-11-18T11:36:56;2.32;73.96
65637;DHT22;52327;42.622;23.316;2023-11-18T11:39:24;2.25;74.95
65637;DHT22;52327;42.622;23.316;2023-11-18T11:41:56;2.24;77.14
65637;DHT22;52327;42.622;23.316;2023-11-18T11:44:31;2.32;75.05
65637;DHT22;52327;42.622;23.316;2023-11-18T11:47:00;2.18;75.14
65637;DHT22;52327;42.622;23.316;2023-11-18T11:49:40;2.25;74.53
65637;DHT22;52327;42.622;23.316;2023-11-18T11:52:15;2.35;76.08
65637;DHT22;52327;42.622;23.316;2023-11-18T11:54:56;2.28;75.11
65637;DHT22;52327;42.622;23.316;2023-11-18T11:57:27;2.42;74.55
65637;DHT22;52327;42.622;23.316;2023-11-18T12:02:27;2.45;74.56
65637;DHT22;52327;42.622;23.316;2023-11-18T12:05:03;2.53;73.12
65637;DHT22;52327;42.622;23.316;2023-11-18T12:07:40;2.59;73.30
65637;DHT22;52327;42.622;23.316;2023-11-18T12:10:08;2.48;72.85
65637;DHT22;52327;42.622;23.316;2023-11-18T12:12:39;2.48;74.76
65637;DHT22;52327;42.622;23.316;2023-11-18T12:15:05;2.53;74.54
65637;DHT22;52327;42.622;23.316;2023-11-18T12:18:09;2.52;72.98
65637;DHT22;52327;42.622;23.316;2023-11-18T12:20:44;2.43;74.52
65637;DHT22;52327;42.622;23.316;2023-11-18T12:23:34;2.48;75.74
65637;DHT22;52327;42.622;23.316;2023-11-18T12:26:04;2.53;76.63
65637;DHT22;52327;42.622;23.316;2023-11-18T12:28:52;2.48;74.55
65637;DHT22;52327;42.622;23.316;2023-11-18T12:31:41;2.36;75.53
65637;DHT22;52327;42.622;23.316;2023-11-18T12:34:07;2.42;75.36
65637;DHT22;52327;42.622;23.316;2023-11-18T12:37:12;2.62;75.12
65637;DHT22;52327;42.622;23.316;2023-11-18T12:43:02;2.57;74.38
65637;DHT22;52327;42.622;23.316;2023-11-18T12:48:43;2.59;74.24
65637;DHT22;52327;42.622;23.316;2023-11-18T12:51:10;2.62;73.46
65637;DHT22;52327;42.622;23.316;2023-11-18T12:53:48;2.49;73.52
65637;DHT22;52327;42.622;23.316;2023-11-18T12:56:17;2.49;74.46
65637;DHT22;52327;42.622;23.316;2023-11-18T12:58:48;2.39;75.21
65637;DHT22;52327;42.622;23.316;2023-11-18T13:01:16;2.40;74.94
65637;DHT22;52327;42.622;23.316;2023-11-18T13:03:46;2.42;74.71
65637;DHT22;52327;42.622;23.316;2023-11-18T13:06:12;2.35;75.99
65637;DHT22;52327;42.622;23.316;2023-11-18T13:08:48;2.48;74.81
65637;DHT22;52327;42.622;23.316;2023-11-18T13:11:22;2.40;75.87
65637;DHT22;52327;42.622;23.316;2023-11-18T13:13:51;2.31;74.27
65637;DHT22;52327;42.622;23.316;2023-11-18T13:16:17;2.19;73.97
65637;DHT22;52327;42.622;23.316;2023-11-18T13:18:48;2.28;75.52
65637;DHT22;52327;42.622;23.316;2023-11-18T13:21:20;2.29;76.25
65637;DHT22;52327;42.622;23.316;2023-11-18T13:23:52;2.24;77.07
65637;DHT22;52327;42.622;23.316;2023-11-18T13:26:19;2.21;77.54
65637;DHT22;52327;42.622;23.316;2023-11-18T13:28:48;2.11;77.37
65637;DHT22;52327;42.622;23.316;2023-11-18T13:31:17;2.12;75.98
65637;DHT22;52327;42.622;23.316;2023-11-18T13:33:43;2.02;76.10
65637;DHT22;52327;42.622;23.316;2023-11-18T13:36:12;2.02;75.94
65637;DHT22;52327;42.622;23.316;2023-11-18T13:38:39;1.99;76.21
65637;DHT22;52327;42.622;23.316;2023-11-18T13:41:06;2.01;78.57
65637;DHT22;52327;42.622;23.316;2023-11-18T13:43:46;1.94;76.90
65637;DHT22;52327;42.622;23.316;2023-11-18T13:46:14;1.88;77.56
65637;DHT22;52327;42.622;23.316;2023-11-18T13:48:47;1.94;79.02
65637;DHT22;52327;42.622;23.316;2023-11-18T13:51:15;1.93;78.78
65637;DHT22;52327;42.622;23.316;2023-11-18T13:53:42;1.88;76.99
65637;DHT22;52327;42.622;23.316;2023-11-18T13:56:12;1.75;78.81
65637;DHT22;52327;42.622;23.316;2023-11-18T13:58:39;1.75;78.91
65637;DHT22;52327;42.622;23.316;2023-11-18T14:01:09;1.74;79.25
65637;DHT22;52327;42.622;23.316;2023-11-18T14:03:39;1.71;79.98
65637;DHT22;52327;42.622;23.316;2023-11-18T14:06:06;1.74;80.69
65637;DHT22;52327;42.622;23.316;2023-11-18T14:08:32;1.78;80.07
65637;DHT22;52327;42.622;23.316;2023-11-18T14:10:59;1.63;80.70
65637;DHT22;52327;42.622;23.316;2023-11-18T14:13:25;1.63;79.76
65637;DHT22;52327;42.622;23.316;2023-11-18T14:15:54;1.71;79.82
65637;DHT22;52327;42.622;23.316;2023-11-18T14:18:22;1.77;79.98
65637;DHT22;52327;42.622;23.316;2023-11-18T14:20:48;1.75;80.43
65637;DHT22;52327;42.622;23.316;2023-11-18T14:23:15;1.67;79.96
65637;DHT22;52327;42.622;23.316;2023-11-18T14:25:41;1.74;80.81
65637;DHT22;52327;42.622;23.316;2023-11-18T14:28:07;1.77;80.96
65637;DHT22;52327;42.622;23.316;2023-11-18T14:30:35;1.57;80.52
65637;DHT22;52327;42.622;23.316;2023-11-18T14:33:01;1.56;81.78
65637;DHT22;52327;42.622;23.316;2023-11-18T14:35:26;1.61;81.77
65637;DHT22;52327;42.622;23.316;2023-11-18T14:37:52;1.66;80.39
65637;DHT22;52327;42.622;23.316;2023-11-18T14:40:17;1.61;80.73
65637;DHT22;52327;42.622;23.316;2023-11-18T14:42:46;1.57;80.09
65637;DHT22;52327;42.622;23.316;2023-11-18T14:45:14;1.61;81.67
65637;DHT22;52327;42.622;23.316;2023-11-18T14:47:41;1.60;80.46
65637;DHT22;52327;42.622;23.316;2023-11-18T14:50:09;1.60;81.87
65637;DHT22;52327;42.622;23.316;2023-11-18T14:52:52;1.51;80.74
65637;DHT22;52327;42.622;23.316;2023-11-18T14:55:23;1.44;80.61
65637;DHT22;52327;42.622;23.316;2023-11-18T14:57:50;1.53;82.53
65637;DHT22;52327;42.622;23.316;2023-11-18T15:00:16;1.56;81.65
65637;DHT22;52327;42.622;23.316;2023-11-18T15:02:54;1.54;79.88
65637;DHT22;52327;42.622;23.316;2023-11-18T15:05:23;1.56;80.79
65637;DHT22;52327;42.622;23.316;2023-11-18T15:07:51;1.54;80.85
65637;DHT22;52327;42.622;23.316;2023-11-18T15:10:17;1.53;81.08
65637;DHT22;52327;42.622;23.316;2023-11-18T15:12:50;1.50;80.45
65637;DHT22;52327;42.622;23.316;2023-11-18T15:15:29;1.60;81.35
65637;DHT22;52327;42.622;23.316;2023-11-18T15:18:00;1.54;80.66
65637;DHT22;52327;42.622;23.316;2023-11-18T15:20:29;1.63;80.46
65637;DHT22;52327;42.622;23.316;2023-11-18T15:22:54;1.60;80.40
65637;DHT22;52327;42.622;23.316;2023-11-18T15:25:20;1.56;80.74
65637;DHT22;52327;42.622;23.316;2023-11-18T15:27:46;1.58;80.36
65637;DHT22;52327;42.622;23.316;2023-11-18T15:30:16;1.66;81.12
65637;DHT22;52327;42.622;23.316;2023-11-18T15:32:46;1.66;79.58
65637;DHT22;52327;42.622;23.316;2023-11-18T15:35:12;1.64;79.87
65637;DHT22;52327;42.622;23.316;2023-11-18T15:37:39;1.60;78.86
65637;DHT22;52327;42.622;23.316;2023-11-18T15:40:09;1.68;79.26
65637;DHT22;52327;42.622;23.316;2023-11-18T15:42:41;1.68;81.28
65637;DHT22;52327;42.622;23.316;2023-11-18T15:45:11;1.74;79.79
65637;DHT22;52327;42.622;23.316;2023-11-18T15:47:40;1.71;78.01
65637;DHT22;52327;42.622;23.316;2023-11-18T15:50:08;1.75;77.60
65637;DHT22;52327;42.622;23.316;2023-11-18T15:52:38;1.74;78.13
65637;DHT22;52327;42.622;23.316;2023-11-18T15:55:05;1.73;78.08
65637;DHT22;52327;42.622;23.316;2023-11-18T15:57:38;1.82;77.15
65637;DHT22;52327;42.622;23.316;2023-11-18T16:00:08;1.87;78.24
65637;DHT22;52327;42.622;23.316;2023-11-18T16:02:39;1.82;78.10
65637;DHT22;52327;42.622;23.316;2023-11-18T16:05:06;1.84;77.57
65637;DHT22;52327;42.622;23.316;2023-11-18T16:07:32;1.81;77.68
65637;DHT22;52327;42.622;23.316;2023-11-18T16:09:58;1.85;77.11
65637;DHT22;52327;42.622;23.316;2023-11-18T16:12:25;1.91;76.97